Weather History for Denali Park, AK

Change the Weather History Date:

Monday, November 19, 2012

  Actual Average Record
Temperature  
Mean Temperature -24 °F -  
Max Temperature -16 °F 15 °F 42 °F (1949)
Min Temperature -32 °F 0 °F -34 °F (2011)
Degree Days  
Heating Degree Days 89    
Moisture  
Dew Point -34 °F    
Average Humidity 75    
Maximum Humidity 83    
Minimum Humidity 68    
Precipitation  
Precipitation 0.00 in - - ()
Sea Level Pressure  
Sea Level Pressure 29.72 in    
Wind  
Wind Speed 0 mph (North)    
Max Wind Speed 0 mph    
Max Gust Speed -    
Visibility 10 miles    
Events      
Averages and records for this station are not official NWS values.
T = Trace of Precipitation, MM = Missing Value Source: NWS Daily Summary

Daily Weather History Graph

Daily Weather History Graph

Search for Another Location

Airport:

Trip Planner

Search our weather history database for the weather conditions in past years. The results will help you decide how hot, cold, wet, or windy it might be!

Date:

Astronomy

Nov. 19, 2012 Rise Set
Actual Time 9:35 AM AKST 3:46 PM AKST
Civil Twilight 8:34 AM AKST 4:47 PM AKST
Nautical Twilight 7:33 AM AKST 5:48 PM AKST
Astronomical Twilight 6:37 AM AKST 6:44 PM AKST
Moon 1:45 PM AKST (11/19) 11:31 PM AKST (11/19)
Length of Visible Light 8h 13m
Length of Day
6h 10m
Waxing Crescent, 42% of the Moon is Illuminated
Nov 19
Waxing Crescent
Nov 20
First Quarter
Nov 28
Full
Dec 6
Last Quarter
Dec 12
New

Hourly Weather History & Observations

Time (AKST) Temp. Dew Point Humidity Pressure Visibility Wind Dir Wind Speed Gust Speed Precip Events Conditions
12:16 AM -29.2 °F -34.6 °F 75% 29.63 in 10.0 mi Calm Calm - N/A   Clear
12:36 AM -29.2 °F -36.4 °F 68% 29.63 in 10.0 mi Calm Calm - N/A   Clear
12:56 AM -29.2 °F -36.4 °F 68% 29.64 in 10.0 mi Calm Calm - N/A   Clear
1:16 AM -31.0 °F -36.4 °F 75% 29.64 in 8.0 mi Calm Calm - N/A   Clear
1:36 AM -31.0 °F -36.4 °F 75% 29.65 in 10.0 mi Calm Calm - N/A   Clear
1:56 AM -31.0 °F -36.4 °F 75% 29.65 in 10.0 mi Calm Calm - N/A   Clear
2:16 AM -31.0 °F -36.4 °F 75% 29.65 in 10.0 mi Calm Calm - N/A   Clear
2:36 AM -29.2 °F -36.4 °F 68% 29.65 in 10.0 mi Calm Calm - N/A   Clear
2:56 AM -31.0 °F -36.4 °F 75% 29.66 in 10.0 mi Calm Calm - N/A   Clear
3:16 AM -32.8 °F -36.4 °F 83% 29.66 in 10.0 mi Calm Calm - N/A   Clear
3:36 AM -31.0 °F -36.4 °F 75% 29.67 in 10.0 mi Calm Calm - N/A   Clear
3:56 AM -31.0 °F -36.4 °F 75% 29.66 in 10.0 mi Calm Calm - N/A   Clear
4:16 AM -31.0 °F -36.4 °F 75% 29.67 in 10.0 mi Calm Calm - N/A   Clear
4:36 AM -32.8 °F -36.4 °F 83% 29.67 in 10.0 mi Calm Calm - N/A   Clear
4:56 AM -32.8 °F -36.4 °F 83% 29.67 in 10.0 mi Calm Calm - N/A   Clear
5:16 AM -32.8 °F -36.4 °F 83% 29.68 in 10.0 mi Calm Calm - N/A   Clear
5:36 AM -32.8 °F -38.2 °F 75% 29.67 in 10.0 mi Calm Calm - N/A   Clear
5:56 AM -32.8 °F -38.2 °F 75% 29.68 in 10.0 mi Calm Calm - N/A   Clear
6:16 AM -32.8 °F -38.2 °F 75% 29.69 in 10.0 mi Calm Calm - N/A   Clear
6:36 AM -32.8 °F -36.4 °F 83% 29.69 in 10.0 mi Calm Calm - N/A   Clear
6:56 AM -31.0 °F -36.4 °F 75% 29.69 in 10.0 mi Calm Calm - N/A   Clear
7:16 AM -32.8 °F -36.4 °F 83% 29.69 in 10.0 mi Calm Calm - N/A   Clear
7:36 AM -32.8 °F -38.2 °F 75% 29.69 in 10.0 mi Calm Calm - N/A   Clear
7:56 AM -32.8 °F -38.2 °F 75% 29.70 in 10.0 mi Calm Calm - N/A   Clear
8:16 AM -32.8 °F -38.2 °F 75% 29.71 in 10.0 mi Calm Calm - N/A   Clear
8:36 AM -32.8 °F -38.2 °F 75% 29.71 in 10.0 mi Calm Calm - N/A   Clear
8:56 AM -32.8 °F -38.2 °F 75% 29.71 in 10.0 mi Calm Calm - N/A   Clear
9:16 AM -32.8 °F -38.2 °F 75% 29.72 in 10.0 mi Calm Calm - N/A   Clear
9:36 AM -32.8 °F -38.2 °F 75% 29.72 in 10.0 mi Calm Calm - N/A   Clear
9:56 AM -32.8 °F -38.2 °F 75% 29.73 in 10.0 mi Calm Calm - N/A   Clear
10:16 AM -32.8 °F -38.2 °F 75% 29.73 in 10.0 mi Calm Calm - N/A   Clear
10:36 AM -31.0 °F -36.4 °F 75% 29.73 in 10.0 mi Calm Calm - N/A   Clear
10:56 AM -29.2 °F -34.6 °F 75% 29.73 in 10.0 mi Calm Calm - N/A   Clear
11:16 AM -25.6 °F -31.0 °F 76% 29.73 in 10.0 mi Calm Calm - N/A   Clear
11:36 AM -23.8 °F -29.2 °F 76% 29.73 in 10.0 mi Calm Calm - N/A   Clear
11:56 AM -23.8 °F -29.2 °F 76% 29.72 in 10.0 mi Calm Calm - N/A   Clear
12:16 PM -22.0 °F -27.4 °F 76% 29.73 in 10.0 mi Calm Calm - N/A   Clear
12:36 PM -20.2 °F -27.4 °F 69% 29.72 in 10.0 mi Calm Calm - N/A   Clear
12:56 PM -18.4 °F -23.8 °F 76% 29.72 in 10.0 mi Calm Calm - N/A   Clear
1:16 PM -20.2 °F -25.6 °F 76% 29.72 in 10.0 mi Calm Calm - N/A   Clear
1:36 PM -18.4 °F -23.8 °F 76% 29.71 in 10.0 mi Calm Calm - N/A   Clear
1:56 PM -16.6 °F -23.8 °F 70% 29.71 in 10.0 mi Calm Calm - N/A   Clear
2:16 PM -16.6 °F -22.0 °F 76% 29.71 in 10.0 mi Calm Calm - N/A   Clear
2:36 PM -20.2 °F -27.4 °F 69% 29.72 in 10.0 mi Calm Calm - N/A   Clear
2:56 PM -22.0 °F -27.4 °F 76% 29.72 in 10.0 mi Calm Calm - N/A   Clear
3:16 PM -23.8 °F -27.4 °F 83% 29.72 in 10.0 mi Calm Calm - N/A   Clear
3:36 PM -23.8 °F -29.2 °F 76% 29.72 in 10.0 mi Calm Calm - N/A   Clear
3:56 PM -23.8 °F -29.2 °F 76% 29.72 in 10.0 mi Calm Calm - N/A   Clear
4:16 PM -25.6 °F -29.2 °F 83% 29.73 in 10.0 mi Calm Calm - N/A   Clear
4:36 PM -25.6 °F -29.2 °F 83% 29.73 in 10.0 mi Calm Calm - N/A   Clear
4:56 PM -25.6 °F -29.2 °F 83% 29.74 in 10.0 mi Calm Calm - N/A   Clear
5:16 PM -25.6 °F -31.0 °F 76% 29.75 in 10.0 mi Calm Calm - N/A   Clear
5:36 PM -25.6 °F -31.0 °F 76% 29.75 in 10.0 mi Calm Calm - N/A   Clear
5:56 PM -27.4 °F -32.8 °F 75% 29.76 in 10.0 mi Calm Calm - N/A   Clear
6:16 PM -27.4 °F -32.8 °F 75% 29.76 in 10.0 mi Calm Calm - N/A   Clear
6:36 PM -27.4 °F -32.8 °F 75% 29.76 in 10.0 mi Calm Calm - N/A   Partly Cloudy
6:56 PM -27.4 °F -32.8 °F 75% 29.77 in 10.0 mi Calm Calm - N/A   Mostly Cloudy
7:16 PM -27.4 °F -32.8 °F 75% 29.77 in 10.0 mi Calm Calm - N/A   Mostly Cloudy
7:36 PM -27.4 °F -32.8 °F 75% 29.78 in 10.0 mi Calm Calm - N/A   Partly Cloudy
7:56 PM -27.4 °F -32.8 °F 75% 29.79 in 10.0 mi Calm Calm - N/A   Clear
8:16 PM -27.4 °F -32.8 °F 75% 29.79 in 10.0 mi Calm Calm - N/A   Clear
8:36 PM -27.4 °F -34.6 °F 69% 29.79 in 10.0 mi Calm Calm - N/A   Clear
8:56 PM -27.4 °F -34.6 °F 69% 29.78 in 10.0 mi Calm Calm - N/A   Clear
9:16 PM -29.2 °F -34.6 °F 75% 29.79 in 10.0 mi Calm Calm - N/A   Clear
9:36 PM -29.2 °F -34.6 °F 75% 29.78 in 10.0 mi Calm Calm - N/A   Clear
9:56 PM -29.2 °F -34.6 °F 75% 29.79 in 10.0 mi Calm Calm - N/A   Clear
10:16 PM -29.2 °F -36.4 °F 68% 29.79 in 10.0 mi Calm Calm - N/A   Clear
10:36 PM -29.2 °F -34.6 °F 75% 29.79 in 10.0 mi Calm Calm - N/A   Clear
10:56 PM -29.2 °F -34.6 °F 75% 29.79 in 10.0 mi Calm Calm - N/A   Clear
11:16 PM -31.0 °F -36.4 °F 75% 29.79 in 10.0 mi Calm Calm - N/A   Clear
11:36 PM -31.0 °F -36.4 °F 75% 29.79 in 10.0 mi Calm Calm - N/A   Clear
11:56 PM -31.0 °F -36.4 °F 75% 29.79 in 10.0 mi Calm Calm - N/A   Clear